sensor_id;sensor_type;location;lat;lon;timestamp;pressure;altitude;pressure_sealevel;temperature;humidity
53041;BME280;39326;42.650;23.248;2022-11-23T00:00:33;91344.50;;;5.69;86.73
53041;BME280;39326;42.650;23.248;2022-11-23T00:02:59;91353.53;;;5.68;86.92
53041;BME280;39326;42.650;23.248;2022-11-23T00:05:26;91354.28;;;5.72;86.61
53041;BME280;39326;42.650;23.248;2022-11-23T00:07:52;91347.88;;;5.66;87.01
53041;BME280;39326;42.650;23.248;2022-11-23T00:10:19;91336.97;;;5.57;86.55
53041;BME280;39326;42.650;23.248;2022-11-23T00:12:44;91352.06;;;5.63;87.00
53041;BME280;39326;42.650;23.248;2022-11-23T00:15:13;91351.25;;;5.73;87.25
53041;BME280;39326;42.650;23.248;2022-11-23T00:17:38;91343.72;;;5.72;86.91
53041;BME280;39326;42.650;23.248;2022-11-23T00:20:05;91344.44;;;5.80;86.55
53041;BME280;39326;42.650;23.248;2022-11-23T00:22:31;91333.13;;;5.79;86.56
53041;BME280;39326;42.650;23.248;2022-11-23T00:24:56;91323.69;;;5.82;86.01
53041;BME280;39326;42.650;23.248;2022-11-23T00:27:22;91326.72;;;5.76;86.35
53041;BME280;39326;42.650;23.248;2022-11-23T00:29:47;91321.03;;;5.78;86.75
53041;BME280;39326;42.650;23.248;2022-11-23T00:32:13;91333.50;;;5.74;86.72
53041;BME280;39326;42.650;23.248;2022-11-23T00:34:38;91342.97;;;5.75;87.10
53041;BME280;39326;42.650;23.248;2022-11-23T00:37:04;91338.78;;;5.74;86.82
53041;BME280;39326;42.650;23.248;2022-11-23T00:39:29;91336.50;;;5.80;86.53
53041;BME280;39326;42.650;23.248;2022-11-23T00:41:56;91324.06;;;5.76;86.99
53041;BME280;39326;42.650;23.248;2022-11-23T00:44:21;91334.63;;;5.73;87.03
53041;BME280;39326;42.650;23.248;2022-11-23T00:46:46;91329.00;;;5.71;87.00
53041;BME280;39326;42.650;23.248;2022-11-23T00:49:12;91334.66;;;5.69;87.18
53041;BME280;39326;42.650;23.248;2022-11-23T00:51:37;91330.88;;;5.70;87.30
53041;BME280;39326;42.650;23.248;2022-11-23T00:54:04;91328.63;;;5.69;87.11
53041;BME280;39326;42.650;23.248;2022-11-23T00:56:30;91324.44;;;5.71;87.62
53041;BME280;39326;42.650;23.248;2022-11-23T00:58:57;91326.72;;;5.73;87.47
53041;BME280;39326;42.650;23.248;2022-11-23T01:01:26;91325.22;;;5.61;88.19
53041;BME280;39326;42.650;23.248;2022-11-23T01:03:53;91320.72;;;5.58;88.46
53041;BME280;39326;42.650;23.248;2022-11-23T01:06:24;91320.69;;;5.65;88.71
53041;BME280;39326;42.650;23.248;2022-11-23T01:08:58;91325.97;;;5.65;88.50
53041;BME280;39326;42.650;23.248;2022-11-23T01:11:26;91333.50;;;5.74;87.61
53041;BME280;39326;42.650;23.248;2022-11-23T01:13:52;91314.66;;;5.68;87.69
53041;BME280;39326;42.650;23.248;2022-11-23T01:16:20;91314.97;;;5.74;87.63
53041;BME280;39326;42.650;23.248;2022-11-23T01:18:46;91315.38;;;5.72;87.80
53041;BME280;39326;42.650;23.248;2022-11-23T01:21:11;91319.56;;;5.63;88.83
53041;BME280;39326;42.650;23.248;2022-11-23T01:23:37;91307.53;;;5.37;90.03
53041;BME280;39326;42.650;23.248;2022-11-23T01:26:05;91314.72;;;5.18;91.84
53041;BME280;39326;42.650;23.248;2022-11-23T01:28:31;91308.69;;;5.21;91.87
53041;BME280;39326;42.650;23.248;2022-11-23T01:31:08;91309.78;;;5.38;91.29
53041;BME280;39326;42.650;23.248;2022-11-23T01:33:34;91312.00;;;5.54;90.58
53041;BME280;39326;42.650;23.248;2022-11-23T01:35:59;91308.22;;;5.59;90.09
53041;BME280;39326;42.650;23.248;2022-11-23T01:38:25;91318.78;;;5.69;89.55
53041;BME280;39326;42.650;23.248;2022-11-23T01:40:50;91314.31;;;5.45;90.93
53041;BME280;39326;42.650;23.248;2022-11-23T01:43:17;91318.84;;;5.52;90.46
53041;BME280;39326;42.650;23.248;2022-11-23T01:48:20;91313.13;;;5.71;89.69
53041;BME280;39326;42.650;23.248;2022-11-23T01:50:49;91314.63;;;5.75;88.83
53041;BME280;39326;42.650;23.248;2022-11-23T01:53:15;91313.56;;;5.37;90.73
53041;BME280;39326;42.650;23.248;2022-11-23T01:55:43;91315.47;;;5.33;91.17
53041;BME280;39326;42.650;23.248;2022-11-23T01:58:12;91306.38;;;5.52;90.67
53041;BME280;39326;42.650;23.248;2022-11-23T02:00:39;91296.91;;;5.62;90.32
53041;BME280;39326;42.650;23.248;2022-11-23T02:03:04;91294.25;;;5.62;90.02
53041;BME280;39326;42.650;23.248;2022-11-23T02:05:36;91308.22;;;5.66;90.13
53041;BME280;39326;42.650;23.248;2022-11-23T02:08:06;91296.88;;;5.65;89.66
53041;BME280;39326;42.650;23.248;2022-11-23T02:10:32;91290.84;;;5.61;90.10
53041;BME280;39326;42.650;23.248;2022-11-23T02:13:02;91286.34;;;5.58;90.03
53041;BME280;39326;42.650;23.248;2022-11-23T02:15:29;91280.25;;;5.68;89.77
53041;BME280;39326;42.650;23.248;2022-11-23T02:17:56;91278.34;;;5.72;89.21
53041;BME280;39326;42.650;23.248;2022-11-23T02:20:22;91277.63;;;5.54;90.31
53041;BME280;39326;42.650;23.248;2022-11-23T02:28:11;91272.34;;;5.54;90.67
53041;BME280;39326;42.650;23.248;2022-11-23T02:30:38;91281.78;;;5.59;90.30
53041;BME280;39326;42.650;23.248;2022-11-23T02:33:04;91279.50;;;5.64;90.17
53041;BME280;39326;42.650;23.248;2022-11-23T02:35:30;91277.97;;;5.70;89.71
53041;BME280;39326;42.650;23.248;2022-11-23T02:37:56;91271.56;;;5.75;89.10
53041;BME280;39326;42.650;23.248;2022-11-23T02:40:30;91263.22;;;5.76;89.09
53041;BME280;39326;42.650;23.248;2022-11-23T02:42:56;91256.00;;;5.84;88.80
53041;BME280;39326;42.650;23.248;2022-11-23T02:45:36;91257.16;;;5.83;88.32
53041;BME280;39326;42.650;23.248;2022-11-23T02:48:03;91248.84;;;5.74;89.10
53041;BME280;39326;42.650;23.248;2022-11-23T02:50:28;91248.47;;;5.79;88.84
53041;BME280;39326;42.650;23.248;2022-11-23T02:52:54;91248.84;;;5.77;88.17
53041;BME280;39326;42.650;23.248;2022-11-23T02:55:19;91239.06;;;5.71;89.36
53041;BME280;39326;42.650;23.248;2022-11-23T02:57:45;91233.34;;;5.80;88.65
53041;BME280;39326;42.650;23.248;2022-11-23T03:00:11;91234.09;;;5.84;88.45
53041;BME280;39326;42.650;23.248;2022-11-23T03:02:37;91237.91;;;5.75;87.99
53041;BME280;39326;42.650;23.248;2022-11-23T03:05:03;91239.41;;;5.73;87.83
53041;BME280;39326;42.650;23.248;2022-11-23T03:07:28;91230.81;;;5.62;88.72
53041;BME280;39326;42.650;23.248;2022-11-23T03:09:53;91224.41;;;5.56;88.98
53041;BME280;39326;42.650;23.248;2022-11-23T03:12:19;91227.03;;;5.56;89.00
53041;BME280;39326;42.650;23.248;2022-11-23T03:14:45;91224.78;;;5.47;89.25
53041;BME280;39326;42.650;23.248;2022-11-23T03:17:11;91214.59;;;5.45;89.34
53041;BME280;39326;42.650;23.248;2022-11-23T03:19:36;91224.78;;;5.47;89.37
53041;BME280;39326;42.650;23.248;2022-11-23T03:22:02;91221.75;;;5.52;89.57
53041;BME280;39326;42.650;23.248;2022-11-23T03:24:27;91225.53;;;5.47;89.64
53041;BME280;39326;42.650;23.248;2022-11-23T03:26:53;91225.91;;;5.53;89.22
53041;BME280;39326;42.650;23.248;2022-11-23T03:29:18;91228.16;;;5.58;88.97
53041;BME280;39326;42.650;23.248;2022-11-23T03:31:44;91231.91;;;5.64;89.05
53041;BME280;39326;42.650;23.248;2022-11-23T03:34:09;91216.81;;;5.58;88.74
53041;BME280;39326;42.650;23.248;2022-11-23T03:36:35;91213.41;;;5.61;88.53
53041;BME280;39326;42.650;23.248;2022-11-23T03:39:00;91205.84;;;5.59;88.65
53041;BME280;39326;42.650;23.248;2022-11-23T03:41:26;91206.63;;;5.56;88.64
53041;BME280;39326;42.650;23.248;2022-11-23T03:43:51;91202.88;;;5.50;88.77
53041;BME280;39326;42.650;23.248;2022-11-23T03:46:17;91191.97;;;5.37;89.38
53041;BME280;39326;42.650;23.248;2022-11-23T03:48:42;91184.06;;;5.30;89.80
53041;BME280;39326;42.650;23.248;2022-11-23T03:51:08;91189.69;;;5.43;89.13
53041;BME280;39326;42.650;23.248;2022-11-23T03:53:33;91179.84;;;5.47;88.65
53041;BME280;39326;42.650;23.248;2022-11-23T03:55:58;91175.31;;;5.47;88.66
53041;BME280;39326;42.650;23.248;2022-11-23T03:58:24;91175.34;;;5.40;88.96
53041;BME280;39326;42.650;23.248;2022-11-23T04:00:49;91187.09;;;5.32;88.77
53041;BME280;39326;42.650;23.248;2022-11-23T04:03:15;91199.22;;;5.19;89.16
53041;BME280;39326;42.650;23.248;2022-11-23T04:05:40;91200.72;;;5.16;89.63
53041;BME280;39326;42.650;23.248;2022-11-23T04:08:06;91204.50;;;5.19;89.49
53041;BME280;39326;42.650;23.248;2022-11-23T04:10:31;91201.47;;;5.24;89.00
53041;BME280;39326;42.650;23.248;2022-11-23T04:12:57;91200.69;;;5.23;88.75
53041;BME280;39326;42.650;23.248;2022-11-23T04:15:22;91202.19;;;5.32;88.34
53041;BME280;39326;42.650;23.248;2022-11-23T04:17:47;91202.16;;;5.39;87.60
53041;BME280;39326;42.650;23.248;2022-11-23T04:20:13;91199.16;;;5.33;87.75
53041;BME280;39326;42.650;23.248;2022-11-23T04:22:38;91199.53;;;5.28;87.85
53041;BME280;39326;42.650;23.248;2022-11-23T04:25:04;91198.03;;;5.27;88.05
53041;BME280;39326;42.650;23.248;2022-11-23T04:27:30;91212.78;;;5.25;88.51
53041;BME280;39326;42.650;23.248;2022-11-23T04:29:55;91208.25;;;5.21;88.27
53041;BME280;39326;42.650;23.248;2022-11-23T04:32:21;91206.81;;;4.78;91.28
53041;BME280;39326;42.650;23.248;2022-11-23T04:34:46;91220.38;;;5.01;90.50
53041;BME280;39326;42.650;23.248;2022-11-23T04:37:11;91224.16;;;4.86;90.61
53041;BME280;39326;42.650;23.248;2022-11-23T04:39:37;91226.78;;;5.04;89.75
53041;BME280;39326;42.650;23.248;2022-11-23T04:42:02;91222.63;;;5.10;89.12
53041;BME280;39326;42.650;23.248;2022-11-23T04:44:28;91234.72;;;4.89;90.38
53041;BME280;39326;42.650;23.248;2022-11-23T04:46:53;91238.88;;;5.01;90.02
53041;BME280;39326;42.650;23.248;2022-11-23T04:49:19;91226.03;;;4.92;90.03
53041;BME280;39326;42.650;23.248;2022-11-23T04:51:44;91235.06;;;5.09;89.61
53041;BME280;39326;42.650;23.248;2022-11-23T04:54:09;91226.41;;;5.02;89.83
53041;BME280;39326;42.650;23.248;2022-11-23T04:56:35;91239.25;;;5.07;89.49
53041;BME280;39326;42.650;23.248;2022-11-23T04:59:00;91237.34;;;5.07;89.68
53041;BME280;39326;42.650;23.248;2022-11-23T05:01:26;91244.16;;;5.08;89.89
53041;BME280;39326;42.650;23.248;2022-11-23T05:03:51;91241.50;;;5.12;89.37
53041;BME280;39326;42.650;23.248;2022-11-23T05:06:16;91248.28;;;5.09;89.31
53041;BME280;39326;42.650;23.248;2022-11-23T05:08:42;91242.63;;;5.11;89.52
53041;BME280;39326;42.650;23.248;2022-11-23T05:11:07;91236.94;;;5.16;89.54
53041;BME280;39326;42.650;23.248;2022-11-23T05:13:33;91228.28;;;5.08;89.65
53041;BME280;39326;42.650;23.248;2022-11-23T05:15:58;91241.84;;;5.17;89.56
53041;BME280;39326;42.650;23.248;2022-11-23T05:18:24;91246.00;;;5.15;90.20
53041;BME280;39326;42.650;23.248;2022-11-23T05:20:49;91248.25;;;5.27;89.63
53041;BME280;39326;42.650;23.248;2022-11-23T05:23:15;91233.94;;;5.21;90.31
53041;BME280;39326;42.650;23.248;2022-11-23T05:25:40;91229.38;;;5.29;90.02
53041;BME280;39326;42.650;23.248;2022-11-23T05:28:06;91233.53;;;5.33;89.84
53041;BME280;39326;42.650;23.248;2022-11-23T05:30:31;91237.72;;;5.13;91.31
53041;BME280;39326;42.650;23.248;2022-11-23T05:33:00;91235.41;;;5.29;90.79
53041;BME280;39326;42.650;23.248;2022-11-23T05:35:27;91231.25;;;5.32;91.01
53041;BME280;39326;42.650;23.248;2022-11-23T05:37:52;91227.84;;;5.35;91.01
53041;BME280;39326;42.650;23.248;2022-11-23T05:40:18;91225.19;;;5.42;90.40
53041;BME280;39326;42.650;23.248;2022-11-23T05:42:43;91226.34;;;5.37;90.39
53041;BME280;39326;42.650;23.248;2022-11-23T05:45:09;91216.09;;;5.46;90.27
53041;BME280;39326;42.650;23.248;2022-11-23T05:47:34;91224.75;;;5.54;89.81
53041;BME280;39326;42.650;23.248;2022-11-23T05:49:59;91226.25;;;5.59;89.20
53041;BME280;39326;42.650;23.248;2022-11-23T05:52:25;91218.72;;;5.57;89.25
53041;BME280;39326;42.650;23.248;2022-11-23T05:54:51;91219.53;;;5.43;89.97
53041;BME280;39326;42.650;23.248;2022-11-23T05:57:16;91215.72;;;5.48;89.61
53041;BME280;39326;42.650;23.248;2022-11-23T05:59:42;91217.59;;;5.51;89.71
53041;BME280;39326;42.650;23.248;2022-11-23T06:02:08;91224.78;;;5.47;89.80
53041;BME280;39326;42.650;23.248;2022-11-23T06:04:33;91222.16;;;5.50;89.46
53041;BME280;39326;42.650;23.248;2022-11-23T06:06:59;91225.50;;;5.55;89.15
53041;BME280;39326;42.650;23.248;2022-11-23T06:09:28;91240.25;;;5.56;89.42
53041;BME280;39326;42.650;23.248;2022-11-23T06:11:53;91244.44;;;5.49;89.61
53041;BME280;39326;42.650;23.248;2022-11-23T06:14:19;91243.66;;;5.56;89.43
53041;BME280;39326;42.650;23.248;2022-11-23T06:16:44;91250.41;;;5.61;89.48
53041;BME280;39326;42.650;23.248;2022-11-23T06:19:10;91250.78;;;5.66;89.62
53041;BME280;39326;42.650;23.248;2022-11-23T06:21:35;91258.31;;;5.68;89.56
53041;BME280;39326;42.650;23.248;2022-11-23T06:24:01;91256.16;;;5.38;90.85
53041;BME280;39326;42.650;23.248;2022-11-23T06:26:26;91255.34;;;5.55;90.63
53041;BME280;39326;42.650;23.248;2022-11-23T06:28:51;91264.78;;;5.60;89.87
53041;BME280;39326;42.650;23.248;2022-11-23T06:31:17;91265.16;;;5.55;90.71
53041;BME280;39326;42.650;23.248;2022-11-23T06:33:42;91265.91;;;5.69;89.89
53041;BME280;39326;42.650;23.248;2022-11-23T06:36:09;91261.38;;;5.70;89.80
53041;BME280;39326;42.650;23.248;2022-11-23T06:38:35;91266.63;;;5.81;89.70
53041;BME280;39326;42.650;23.248;2022-11-23T06:41:02;91262.41;;;5.90;89.14
53041;BME280;39326;42.650;23.248;2022-11-23T06:43:28;91257.13;;;5.94;89.15
53041;BME280;39326;42.650;23.248;2022-11-23T06:45:54;91255.94;;;5.98;89.11
53041;BME280;39326;42.650;23.248;2022-11-23T06:48:20;91244.22;;;6.03;89.63
53041;BME280;39326;42.650;23.248;2022-11-23T06:50:46;91250.59;;;6.09;89.28
53041;BME280;39326;42.650;23.248;2022-11-23T06:53:11;91256.31;;;6.00;89.98
53041;BME280;39326;42.650;23.248;2022-11-23T06:55:37;91249.09;;;6.04;90.20
53041;BME280;39326;42.650;23.248;2022-11-23T06:58:03;91247.50;;;6.21;89.67
53041;BME280;39326;42.650;23.248;2022-11-23T07:00:28;91246.31;;;6.33;90.16
53041;BME280;39326;42.650;23.248;2022-11-23T07:02:54;91249.72;;;6.34;90.60
53041;BME280;39326;42.650;23.248;2022-11-23T07:05:21;91250.50;;;6.27;91.48
53041;BME280;39326;42.650;23.248;2022-11-23T07:07:47;91251.91;;;6.42;90.55
53041;BME280;39326;42.650;23.248;2022-11-23T07:10:12;91253.00;;;6.52;90.49
53041;BME280;39326;42.650;23.248;2022-11-23T07:12:38;91253.34;;;6.54;90.00
53041;BME280;39326;42.650;23.248;2022-11-23T07:15:04;91277.50;;;6.67;89.77
53041;BME280;39326;42.650;23.248;2022-11-23T07:17:29;91272.25;;;6.63;89.13
53041;BME280;39326;42.650;23.248;2022-11-23T07:19:55;91274.56;;;6.57;89.44
53041;BME280;39326;42.650;23.248;2022-11-23T07:22:20;91271.19;;;6.46;90.06
53041;BME280;39326;42.650;23.248;2022-11-23T07:24:45;91274.91;;;6.60;89.07
53041;BME280;39326;42.650;23.248;2022-11-23T07:27:11;91269.59;;;6.63;89.26
53041;BME280;39326;42.650;23.248;2022-11-23T07:29:36;91279.00;;;6.75;89.11
53041;BME280;39326;42.650;23.248;2022-11-23T07:32:02;91272.22;;;6.70;88.96
53041;BME280;39326;42.650;23.248;2022-11-23T07:34:27;91267.22;;;6.79;88.77
53041;BME280;39326;42.650;23.248;2022-11-23T07:36:53;91260.75;;;6.84;88.42
53041;BME280;39326;42.650;23.248;2022-11-23T07:39:19;91262.91;;;6.96;88.18
53041;BME280;39326;42.650;23.248;2022-11-23T07:41:48;91261.41;;;6.95;87.96
53041;BME280;39326;42.650;23.248;2022-11-23T07:44:14;91262.50;;;7.01;88.08
53041;BME280;39326;42.650;23.248;2022-11-23T07:46:39;91259.78;;;7.08;88.71
53041;BME280;39326;42.650;23.248;2022-11-23T07:49:05;91265.44;;;7.14;88.57
53041;BME280;39326;42.650;23.248;2022-11-23T07:51:30;91253.59;;;7.22;88.90
53041;BME280;39326;42.650;23.248;2022-11-23T07:53:56;91265.53;;;7.00;90.71
53041;BME280;39326;42.650;23.248;2022-11-23T07:56:22;91266.50;;;7.20;89.50
53041;BME280;39326;42.650;23.248;2022-11-23T07:58:47;91270.84;;;7.41;89.78
53041;BME280;39326;42.650;23.248;2022-11-23T08:01:14;91267.28;;;7.58;89.71
53041;BME280;39326;42.650;23.248;2022-11-23T08:03:43;91270.03;;;7.48;89.77
53041;BME280;39326;42.650;23.248;2022-11-23T08:06:09;91258.44;;;7.69;89.54
53041;BME280;39326;42.650;23.248;2022-11-23T08:08:35;91254.91;;;7.79;89.27
53041;BME280;39326;42.650;23.248;2022-11-23T08:11:01;91256.56;;;8.00;89.06
53041;BME280;39326;42.650;23.248;2022-11-23T08:13:26;91255.34;;;8.08;88.69
53041;BME280;39326;42.650;23.248;2022-11-23T08:15:52;91247.09;;;7.99;88.24
53041;BME280;39326;42.650;23.248;2022-11-23T08:18:17;91252.81;;;8.28;88.51
53041;BME280;39326;42.650;23.248;2022-11-23T08:20:43;91243.94;;;8.38;88.05
53041;BME280;39326;42.650;23.248;2022-11-23T08:23:08;91249.59;;;8.70;87.99
53041;BME280;39326;42.650;23.248;2022-11-23T08:25:34;91243.75;;;8.79;87.38
53041;BME280;39326;42.650;23.248;2022-11-23T08:28:01;91245.75;;;9.22;87.10
53041;BME280;39326;42.650;23.248;2022-11-23T08:30:29;91237.19;;;9.54;86.29
53041;BME280;39326;42.650;23.248;2022-11-23T08:32:54;91245.19;;;9.94;85.83
53041;BME280;39326;42.650;23.248;2022-11-23T08:35:20;91241.72;;;10.17;85.22
53041;BME280;39326;42.650;23.248;2022-11-23T08:37:46;91244.22;;;10.44;84.74
53041;BME280;39326;42.650;23.248;2022-11-23T08:40:12;91239.34;;;10.39;83.69
53041;BME280;39326;42.650;23.248;2022-11-23T08:42:37;91241.59;;;10.60;83.34
53041;BME280;39326;42.650;23.248;2022-11-23T08:45:03;91241.91;;;10.46;82.83
53041;BME280;39326;42.650;23.248;2022-11-23T08:47:30;91243.91;;;10.58;82.78
53041;BME280;39326;42.650;23.248;2022-11-23T08:49:56;91243.41;;;10.47;82.75
53041;BME280;39326;42.650;23.248;2022-11-23T08:52:21;91234.53;;;9.94;82.67
53041;BME280;39326;42.650;23.248;2022-11-23T08:54:47;91251.81;;;10.25;82.43
53041;BME280;39326;42.650;23.248;2022-11-23T08:57:12;91267.19;;;10.18;81.50
53041;BME280;39326;42.650;23.248;2022-11-23T08:59:37;91262.28;;;10.16;81.68
53041;BME280;39326;42.650;23.248;2022-11-23T09:02:03;91270.47;;;9.86;81.23
53041;BME280;39326;42.650;23.248;2022-11-23T09:04:28;91260.66;;;10.02;81.28
53041;BME280;39326;42.650;23.248;2022-11-23T09:06:55;91265.59;;;10.00;81.29
53041;BME280;39326;42.650;23.248;2022-11-23T09:09:21;91254.69;;;9.95;81.77
53041;BME280;39326;42.650;23.248;2022-11-23T09:11:46;91259.47;;;10.23;81.77
53041;BME280;39326;42.650;23.248;2022-11-23T09:14:12;91251.66;;;10.32;81.77
53041;BME280;39326;42.650;23.248;2022-11-23T09:16:38;91247.03;;;10.37;81.44
53041;BME280;39326;42.650;23.248;2022-11-23T09:19:03;91249.09;;;10.65;80.29
53041;BME280;39326;42.650;23.248;2022-11-23T09:21:30;91236.03;;;10.87;80.19
53041;BME280;39326;42.650;23.248;2022-11-23T09:23:58;91236.94;;;10.80;79.95
53041;BME280;39326;42.650;23.248;2022-11-23T09:26:24;91233.00;;;11.01;79.71
53041;BME280;39326;42.650;23.248;2022-11-23T09:28:50;91233.00;;;11.18;78.80
53041;BME280;39326;42.650;23.248;2022-11-23T09:31:15;91225.66;;;11.38;78.12
53041;BME280;39326;42.650;23.248;2022-11-23T09:33:41;91227.94;;;11.07;78.57
53041;BME280;39326;42.650;23.248;2022-11-23T09:36:06;91228.91;;;11.46;77.60
53041;BME280;39326;42.650;23.248;2022-11-23T09:38:32;91224.53;;;11.68;76.47
53041;BME280;39326;42.650;23.248;2022-11-23T09:44:20;91216.53;;;11.68;75.19
53041;BME280;39326;42.650;23.248;2022-11-23T09:52:22;91223.22;;;12.56;73.82
53041;BME280;39326;42.650;23.248;2022-11-23T09:54:52;91233.97;;;12.69;73.29
53041;BME280;39326;42.650;23.248;2022-11-23T09:57:23;91233.84;;;12.85;70.79
53041;BME280;39326;42.650;23.248;2022-11-23T10:00:00;91237.34;;;13.20;68.02
53041;BME280;39326;42.650;23.248;2022-11-23T10:02:27;91236.25;;;13.30;67.46
53041;BME280;39326;42.650;23.248;2022-11-23T10:04:54;91223.72;;;13.27;65.68
53041;BME280;39326;42.650;23.248;2022-11-23T10:18:13;91224.06;;;13.29;59.40
53041;BME280;39326;42.650;23.248;2022-11-23T10:20:50;91220.56;;;12.94;58.44
53041;BME280;39326;42.650;23.248;2022-11-23T10:25:57;91225.50;;;12.70;57.49
53041;BME280;39326;42.650;23.248;2022-11-23T10:28:22;91224.22;;;12.88;57.80
53041;BME280;39326;42.650;23.248;2022-11-23T10:31:12;91217.03;;;13.45;55.41
53041;BME280;39326;42.650;23.248;2022-11-23T10:33:48;91216.84;;;13.74;51.16
53041;BME280;39326;42.650;23.248;2022-11-23T10:36:17;91213.19;;;13.80;52.77
53041;BME280;39326;42.650;23.248;2022-11-23T10:38:42;91216.94;;;13.83;53.18
53041;BME280;39326;42.650;23.248;2022-11-23T10:41:13;91201.94;;;13.86;51.43
53041;BME280;39326;42.650;23.248;2022-11-23T10:44:09;91206.72;;;14.13;48.81
53041;BME280;39326;42.650;23.248;2022-11-23T10:46:40;91191.09;;;14.11;49.98
53041;BME280;39326;42.650;23.248;2022-11-23T10:51:38;91193.94;;;13.95;47.47
53041;BME280;39326;42.650;23.248;2022-11-23T10:54:15;91193.94;;;13.95;48.89
53041;BME280;39326;42.650;23.248;2022-11-23T10:56:46;91198.78;;;14.09;46.83
53041;BME280;39326;42.650;23.248;2022-11-23T11:04:30;91194.19;;;13.88;47.99
53041;BME280;39326;42.650;23.248;2022-11-23T11:09:55;91201.09;;;14.20;49.31
53041;BME280;39326;42.650;23.248;2022-11-23T11:12:21;91194.28;;;14.59;49.29
53041;BME280;39326;42.650;23.248;2022-11-23T11:14:59;91186.09;;;14.94;44.87
53041;BME280;39326;42.650;23.248;2022-11-23T11:17:31;91188.88;;;14.81;47.58
53041;BME280;39326;42.650;23.248;2022-11-23T11:19:57;91202.22;;;15.03;44.59
53041;BME280;39326;42.650;23.248;2022-11-23T11:24:51;91197.31;;;15.01;45.26
53041;BME280;39326;42.650;23.248;2022-11-23T11:27:26;91191.09;;;14.73;44.67
53041;BME280;39326;42.650;23.248;2022-11-23T11:29:54;91184.31;;;14.28;47.09
53041;BME280;39326;42.650;23.248;2022-11-23T11:32:29;91188.63;;;14.04;46.30
53041;BME280;39326;42.650;23.248;2022-11-23T11:37:46;91171.16;;;13.55;48.08
53041;BME280;39326;42.650;23.248;2022-11-23T11:40:33;91174.75;;;12.92;50.25
53041;BME280;39326;42.650;23.248;2022-11-23T11:45:45;91188.84;;;13.18;47.97
53041;BME280;39326;42.650;23.248;2022-11-23T11:48:33;91184.34;;;13.15;48.04
53041;BME280;39326;42.650;23.248;2022-11-23T11:51:05;91192.78;;;13.26;47.68
53041;BME280;39326;42.650;23.248;2022-11-23T11:54:02;91181.69;;;13.50;46.01
53041;BME280;39326;42.650;23.248;2022-11-23T11:57:01;91181.53;;;14.10;46.48
53041;BME280;39326;42.650;23.248;2022-11-23T11:59:34;91193.91;;;14.79;42.88
53041;BME280;39326;42.650;23.248;2022-11-23T12:02:30;91189.13;;;15.14;39.79
53041;BME280;39326;42.650;23.248;2022-11-23T12:05:21;91182.88;;;15.17;40.28
53041;BME280;39326;42.650;23.248;2022-11-23T12:13:21;91187.09;;;14.87;41.96
53041;BME280;39326;42.650;23.248;2022-11-23T12:15:53;91189.00;;;14.37;43.12
53041;BME280;39326;42.650;23.248;2022-11-23T12:24:01;91190.59;;;14.34;44.35
53041;BME280;39326;42.650;23.248;2022-11-23T12:26:48;91189.38;;;14.57;44.85
53041;BME280;39326;42.650;23.248;2022-11-23T12:29:40;91185.88;;;14.48;45.17
53041;BME280;39326;42.650;23.248;2022-11-23T12:32:32;91186.31;;;14.77;43.85
53041;BME280;39326;42.650;23.248;2022-11-23T12:35:24;91179.00;;;14.69;45.02
53041;BME280;39326;42.650;23.248;2022-11-23T12:38:29;91180.19;;;14.36;45.97
53041;BME280;39326;42.650;23.248;2022-11-23T12:41:17;91180.44;;;13.98;44.61
53041;BME280;39326;42.650;23.248;2022-11-23T12:51:53;91173.56;;;12.17;47.29
53041;BME280;39326;42.650;23.248;2022-11-23T12:57:07;91175.09;;;12.56;47.88
53041;BME280;39326;42.650;23.248;2022-11-23T12:59:47;91159.81;;;12.69;46.21
53041;BME280;39326;42.650;23.248;2022-11-23T13:08:34;91169.94;;;12.11;47.12
53041;BME280;39326;42.650;23.248;2022-11-23T13:14:19;91181.84;;;11.81;48.02
53041;BME280;39326;42.650;23.248;2022-11-23T13:22:10;91193.31;;;11.65;48.71
53041;BME280;39326;42.650;23.248;2022-11-23T13:24:40;91190.16;;;11.41;49.65
53041;BME280;39326;42.650;23.248;2022-11-23T13:35:45;91213.47;;;11.37;50.38
53041;BME280;39326;42.650;23.248;2022-11-23T13:40:44;91218.88;;;11.33;50.81
53041;BME280;39326;42.650;23.248;2022-11-23T13:43:28;91211.50;;;11.25;51.20
53041;BME280;39326;42.650;23.248;2022-11-23T13:46:22;91216.06;;;11.24;51.29
53041;BME280;39326;42.650;23.248;2022-11-23T13:48:54;91213.69;;;10.81;53.15
53041;BME280;39326;42.650;23.248;2022-11-23T13:51:25;91235.94;;;11.07;52.90
53041;BME280;39326;42.650;23.248;2022-11-23T13:53:57;91237.50;;;10.88;54.06
53041;BME280;39326;42.650;23.248;2022-11-23T13:58:58;91240.25;;;10.68;54.18
53041;BME280;39326;42.650;23.248;2022-11-23T14:04:32;91244.66;;;10.58;52.10
53041;BME280;39326;42.650;23.248;2022-11-23T14:07:19;91246.66;;;10.71;52.72
53041;BME280;39326;42.650;23.248;2022-11-23T14:10:16;91244.63;;;10.42;53.27
53041;BME280;39326;42.650;23.248;2022-11-23T14:13:07;91240.84;;;10.59;52.23
53041;BME280;39326;42.650;23.248;2022-11-23T14:15:37;91240.09;;;10.59;52.94
53041;BME280;39326;42.650;23.248;2022-11-23T14:18:40;91247.63;;;10.44;52.97
53041;BME280;39326;42.650;23.248;2022-11-23T14:24:26;91250.78;;;10.39;52.24
53041;BME280;39326;42.650;23.248;2022-11-23T14:35:39;91236.78;;;10.35;53.13
53041;BME280;39326;42.650;23.248;2022-11-23T14:43:26;91225.78;;;10.33;53.46
53041;BME280;39326;42.650;23.248;2022-11-23T14:45:59;91235.03;;;10.28;53.81
53041;BME280;39326;42.650;23.248;2022-11-23T14:48:28;91228.78;;;10.35;53.61
53041;BME280;39326;42.650;23.248;2022-11-23T14:50:59;91224.28;;;10.32;54.00
53041;BME280;39326;42.650;23.248;2022-11-23T14:53:28;91217.13;;;10.29;53.89
53041;BME280;39326;42.650;23.248;2022-11-23T14:55:56;91239.09;;;10.33;53.02
53041;BME280;39326;42.650;23.248;2022-11-23T14:58:22;91246.00;;;10.30;53.22
53041;BME280;39326;42.650;23.248;2022-11-23T15:00:51;91250.66;;;10.26;53.26
53041;BME280;39326;42.650;23.248;2022-11-23T15:03:19;91253.31;;;10.26;53.57